Terminal Aerodrome Forecast
Issued by NWS

Home | Current Version | Previous Version | Text Only | Print | Product List | Glossary On
Versions: 1 2 3 4 5 6 7 8 9 10 11 12 13 14 15 16 17
617
FTUS41 KBTV 302330
TAFMSS
TAF
KMSS 302330Z 0100/0124 04014G20KT P6SM VCSH OVC045
     FM010200 05014KT 5SM -SHRA BR OVC025
     FM010600 06012KT 4SM -SHRA BR OVC008
     FM011400 05008KT P6SM VCSH OVC008
     FM011800 06010KT P6SM OVC008
     FM012200 07010KT P6SM VCSH OVC010=

USA.gov is the U.S. government's official web portal to all federal, state and local government web resources and services.